Time;durP1;ratioP1;P1;durP2;ratioP2;P2;SDS_P1;SDS_P2;PMS_P1;PMS_P2;Temp;Humidity;BMP_temperature;BMP_pressure;BME280_temperature;BME280_humidity;BME280_pressure;Samples;Min_cycle;Max_cycle;Signal;HPM_P1;HPM_P2
2023/05/20 00:00:11;;;;;;;1.10;1.10;;;;;;;14.44;90.68;95432.09;4404148;32;20176;-64
2023/05/20 00:02:36;;;;;;;1.73;1.20;;;;;;;14.69;91.48;95422.50;4393649;32;20199;-64
2023/05/20 00:05:01;;;;;;;1.20;1.10;;;;;;;14.66;90.49;95431.16;4389027;32;20176;-65
2023/05/20 00:07:27;;;;;;;0.87;0.87;;;;;;;14.56;90.36;95424.25;4388018;32;20184;-65
2023/05/20 00:09:52;;;;;;;1.07;1.07;;;;;;;14.43;91.15;95425.19;4400080;32;20184;-64
2023/05/20 00:12:17;;;;;;;1.70;1.60;;;;;;;14.39;91.11;95425.00;4411067;32;20230;-65
2023/05/20 00:14:43;;;;;;;1.53;1.43;;;;;;;14.58;91.12;95421.25;4415721;32;20196;-65
2023/05/20 00:17:08;;;;;;;1.03;1.03;;;;;;;14.75;90.45;95414.03;4406832;32;20237;-65
2023/05/20 00:19:34;;;;;;;1.87;1.77;;;;;;;15.05;92.35;95408.75;4389041;32;20192;-64
2023/05/20 00:21:59;;;;;;;1.10;1.10;;;;;;;14.66;89.57;95417.81;4388558;32;20292;-64
2023/05/20 00:24:25;;;;;;;1.33;1.33;;;;;;;14.37;90.87;95421.88;4401775;32;20260;-64
2023/05/20 00:26:51;;;;;;;1.70;1.60;;;;;;;14.30;90.77;95416.22;4396702;32;20193;-64
2023/05/20 00:29:16;;;;;;;1.47;1.43;;;;;;;14.36;91.39;95416.84;4402659;32;20195;-64
2023/05/20 00:31:41;;;;;;;0.90;0.90;;;;;;;13.69;92.95;95426.03;4385739;32;20251;-65
2023/05/20 00:34:07;;;;;;;1.10;1.10;;;;;;;13.26;97.00;95420.56;4389621;32;20223;-64
2023/05/20 00:36:34;;;;;;;1.00;1.00;;;;;;;13.46;98.85;95418.44;4392420;32;20224;-65
2023/05/20 00:38:59;;;;;;;2.63;1.00;;;;;;;13.90;99.24;95417.44;4384792;32;20290;-64
2023/05/20 00:41:25;;;;;;;3.10;2.33;;;;;;;14.44;99.86;95422.22;4386498;32;20192;-66
2023/05/20 00:43:55;;;;;;;1.77;1.73;;;;;;;14.47;96.60;95414.69;4396367;32;20180;-66
2023/05/20 00:46:22;;;;;;;1.00;1.00;;;;;;;14.52;93.48;95419.87;4386561;32;20235;-67
2023/05/20 00:48:49;;;;;;;1.53;1.53;;;;;;;14.54;93.31;95421.13;4377554;32;20251;-66
2023/05/20 00:51:16;;;;;;;0.93;0.93;;;;;;;14.30;93.79;95416.22;4389351;32;20250;-66
2023/05/20 00:53:43;;;;;;;1.00;1.00;;;;;;;14.25;94.84;95416.38;4390527;32;20191;-66
2023/05/20 00:56:09;;;;;;;4.33;2.00;;;;;;;14.13;93.99;95415.44;4394181;32;20196;-66
2023/05/20 00:58:36;;;;;;;0.90;0.90;;;;;;;13.91;95.20;95413.69;4387760;32;20193;-67
2023/05/20 01:01:02;;;;;;;1.33;1.33;;;;;;;13.96;95.73;95416.19;4394516;32;20200;-66
2023/05/20 01:03:28;;;;;;;1.83;1.73;;;;;;;14.12;97.76;95414.66;4392717;32;20243;-67
2023/05/20 01:05:53;;;;;;;1.20;1.20;;;;;;;14.09;96.05;95409.94;4385991;32;20222;-67
2023/05/20 01:08:20;;;;;;;1.33;1.33;;;;;;;13.85;96.36;95404.25;4389052;32;20204;-67
2023/05/20 01:10:50;;;;;;;1.47;1.37;;;;;;;13.94;96.64;95402.38;4402587;32;20222;-66
2023/05/20 01:13:20;;;;;;;1.13;1.13;;;;;;;14.05;97.08;95403.66;4403701;32;20231;-67
2023/05/20 01:15:48;;;;;;;2.03;1.93;;;;;;;14.08;96.98;95400.38;4393366;32;20207;-66
2023/05/20 01:18:19;;;;;;;1.97;1.87;;;;;;;13.97;96.43;95397.19;4389894;32;20207;-67
2023/05/20 01:20:48;;;;;;;1.37;1.37;;;;;;;13.95;96.79;95399.41;4390805;32;20239;-66
2023/05/20 01:23:14;;;;;;;1.30;1.30;;;;;;;13.88;96.47;95392.97;4384235;32;20203;-67
2023/05/20 01:25:41;;;;;;;1.87;1.77;;;;;;;14.01;97.90;95397.37;4396360;32;20201;-66
2023/05/20 01:28:07;;;;;;;2.00;1.90;;;;;;;13.81;96.60;95396.09;4380543;32;20204;-67
2023/05/20 01:30:40;;;;;;;1.97;1.87;;;;;;;13.76;97.80;95398.91;4385494;32;20238;-67
2023/05/20 01:33:10;;;;;;;1.40;1.40;;;;;;;13.87;98.19;95394.84;4400400;32;20196;-67
2023/05/20 01:35:40;;;;;;;1.73;1.63;;;;;;;14.09;98.76;95401.94;4394299;32;20244;-67
2023/05/20 01:38:06;;;;;;;2.00;1.90;;;;;;;14.23;97.12;95393.78;4382318;32;20245;-67
2023/05/20 01:40:33;;;;;;;1.83;1.73;;;;;;;14.15;96.18;95394.53;4389261;32;20197;-67
2023/05/20 01:43:01;;;;;;;1.30;1.30;;;;;;;14.05;96.11;95384.97;4407560;32;20280;-67
2023/05/20 01:45:27;;;;;;;1.57;1.47;;;;;;;13.84;96.66;95389.34;4394168;32;20192;-67
2023/05/20 01:47:52;;;;;;;1.57;1.47;;;;;;;13.72;97.59;95389.94;4396202;32;20215;-67
2023/05/20 01:50:18;;;;;;;1.50;1.50;;;;;;;13.73;98.14;95391.53;4404579;32;20203;-67
2023/05/20 01:52:47;;;;;;;2.53;2.43;;;;;;;13.84;99.39;95386.69;4402683;32;20280;-66
2023/05/20 01:55:13;;;;;;;1.20;1.20;;;;;;;13.73;97.79;95383.53;4394927;32;20181;-67
2023/05/20 01:57:38;;;;;;;2.13;2.03;;;;;;;14.00;99.53;95393.12;4405068;32;20189;-67
2023/05/20 02:00:05;;;;;;;1.50;1.40;;;;;;;14.07;98.35;95380.91;4394855;32;20188;-67
2023/05/20 02:02:30;;;;;;;1.43;1.40;;;;;;;14.04;97.91;95389.53;4392889;32;20281;-66
2023/05/20 02:04:55;;;;;;;1.70;1.70;;;;;;;14.02;98.32;95377.59;4394503;32;20189;-67
2023/05/20 02:07:20;;;;;;;1.33;1.33;;;;;;;14.09;97.60;95372.59;4405372;32;20201;-67
2023/05/20 02:09:46;;;;;;;1.57;1.53;;;;;;;14.24;98.40;95377.44;4410643;32;20193;-66
2023/05/20 02:12:15;;;;;;;1.30;1.30;;;;;;;14.26;97.63;95372.59;4405506;32;20184;-66
2023/05/20 02:14:45;;;;;;;2.37;2.17;;;;;;;14.34;97.72;95374.44;4387841;32;20231;-67
2023/05/20 02:17:13;;;;;;;2.23;2.13;;;;;;;14.29;97.74;95377.28;4381355;32;20268;-66
2023/05/20 02:19:39;;;;;;;1.70;1.70;;;;;;;14.02;95.94;95370.38;4396437;32;20241;-64
2023/05/20 02:22:05;;;;;;;2.00;1.90;;;;;;;13.80;97.25;95373.19;4413590;32;20207;-67
2023/05/20 02:24:32;;;;;;;2.93;2.23;;;;;;;13.85;98.90;95374.94;4402662;32;20267;-67
2023/05/20 02:26:57;;;;;;;2.20;1.53;;;;;;;13.88;99.55;95383.09;4395466;32;20188;-67
2023/05/20 02:29:27;;;;;;;1.67;1.57;;;;;;;14.06;100.00;95383.88;4404111;32;20189;-67
2023/05/20 02:31:53;;;;;;;1.63;1.53;;;;;;;14.12;99.62;95385.31;4402979;32;20256;-67
2023/05/20 02:34:19;;;;;;;1.63;1.53;;;;;;;14.21;98.55;95394.09;4392545;32;20188;-67
2023/05/20 02:36:45;;;;;;;1.27;1.27;;;;;;;14.18;98.94;95386.69;4401232;32;20289;-66
2023/05/20 02:39:11;;;;;;;1.60;1.50;;;;;;;14.08;98.76;95376.34;4389039;32;20200;-67
2023/05/20 02:41:36;;;;;;;1.93;1.83;;;;;;;14.04;99.32;95378.88;4407826;32;20188;-67
2023/05/20 02:44:02;;;;;;;1.77;1.67;;;;;;;14.15;98.04;95382.00;4397088;32;20210;-67
2023/05/20 02:46:27;;;;;;;14.33;3.07;;;;;;;14.27;98.77;95387.50;4385651;32;20211;-67
2023/05/20 02:48:52;;;;;;;2.17;1.97;;;;;;;14.22;98.60;95389.53;4390081;32;20219;-66
2023/05/20 02:51:17;;;;;;;1.93;1.83;;;;;;;14.16;98.67;95386.22;4395047;32;20184;-66
2023/05/20 02:53:45;;;;;;;4.33;2.60;;;;;;;14.22;98.16;95387.66;4390464;32;20208;-66
2023/05/20 02:56:12;;;;;;;1.70;1.70;;;;;;;14.14;99.04;95379.63;4395360;32;20225;-66
2023/05/20 02:58:38;;;;;;;1.80;1.70;;;;;;;14.18;99.41;95376.03;4400003;32;20249;-67
2023/05/20 03:01:03;;;;;;;1.67;1.67;;;;;;;14.24;99.28;95380.13;4399829;32;20241;-67
2023/05/20 03:03:30;;;;;;;1.50;1.50;;;;;;;14.06;98.14;95378.56;4403537;32;20338;-66
2023/05/20 03:05:56;;;;;;;2.03;1.93;;;;;;;13.92;99.86;95376.03;4399204;32;20188;-67
2023/05/20 03:08:22;;;;;;;1.73;1.63;;;;;;;14.06;100.00;95376.66;4392734;32;20203;-67
2023/05/20 03:10:48;;;;;;;2.23;2.13;;;;;;;14.26;99.98;95383.25;4393345;32;20196;-67
2023/05/20 03:13:14;;;;;;;1.40;1.30;;;;;;;14.21;98.99;95383.41;4402521;32;20207;-67
2023/05/20 03:15:40;;;;;;;2.87;2.73;;;;;;;14.27;98.81;95384.03;4398104;32;20201;-66
2023/05/20 03:18:09;;;;;;;2.50;2.30;;;;;;;14.21;97.74;95377.28;4399244;32;20202;-67
2023/05/20 03:20:38;;;;;;;8.67;2.97;;;;;;;14.18;98.22;95375.25;4389401;32;20180;-67
2023/05/20 03:23:04;;;;;;;2.00;1.90;;;;;;;14.17;99.30;95366.44;4386211;32;20215;-67
2023/05/20 03:25:30;;;;;;;2.90;2.73;;;;;;;14.22;99.71;95366.31;4384490;32;20266;-67
2023/05/20 03:27:58;;;;;;;2.47;2.33;;;;;;;14.15;98.64;95371.31;4405296;32;20192;-67
2023/05/20 03:30:24;;;;;;;3.60;2.47;;;;;;;14.07;100.00;95377.44;4397619;32;20211;-67
2023/05/20 03:32:52;;;;;;;3.03;2.50;;;;;;;13.95;100.00;95371.94;4396466;32;20200;-67
2023/05/20 03:35:19;;;;;;;5.27;2.67;;;;;;;14.02;100.00;95377.59;4392469;32;20188;-67
2023/05/20 03:37:46;;;;;;;2.80;2.63;;;;;;;14.15;100.00;95375.88;4399115;32;20188;-67
2023/05/20 03:40:14;;;;;;;2.67;2.57;;;;;;;14.09;100.00;95372.59;4390844;32;20218;-67
2023/05/20 03:42:40;;;;;;;2.80;2.67;;;;;;;14.19;100.00;95377.59;4392980;32;20229;-67
2023/05/20 03:45:05;;;;;;;2.30;2.20;;;;;;;14.01;100.00;95376.03;4403356;32;20181;-67
2023/05/20 03:47:31;;;;;;;3.37;3.17;;;;;;;13.86;100.00;95379.94;4399968;32;20240;-67
2023/05/20 03:49:59;;;;;;;3.27;3.07;;;;;;;13.98;100.00;95380.09;4398674;32;20185;-67
2023/05/20 03:52:24;;;;;;;6.90;3.67;;;;;;;13.95;99.66;95379.94;4396800;32;20181;-67
2023/05/20 03:54:50;;;;;;;3.30;3.00;;;;;;;13.82;99.77;95387.00;4397058;32;20187;-67
2023/05/20 03:57:15;;;;;;;3.40;3.20;;;;;;;13.97;100.00;95383.88;4395539;32;20238;-67
2023/05/20 03:59:40;;;;;;;3.37;3.07;;;;;;;14.00;100.00;95385.13;4385609;32;20188;-66
2023/05/20 04:02:08;;;;;;;3.30;3.10;;;;;;;14.08;100.00;95381.69;4390454;32;20200;-67
2023/05/20 04:04:33;;;;;;;3.20;3.00;;;;;;;14.15;100.00;95387.31;4383667;32;20184;-67
2023/05/20 04:07:05;;;;;;;2.77;2.67;;;;;;;14.22;100.00;95386.88;4391701;32;20276;-67
2023/05/20 04:09:31;;;;;;;4.87;3.77;;;;;;;14.20;100.00;95389.06;4405402;32;20176;-67
2023/05/20 04:11:56;;;;;;;3.70;3.40;;;;;;;14.06;100.00;95391.88;4389373;32;20215;-67
2023/05/20 04:14:21;;;;;;;7.93;3.97;;;;;;;14.10;100.00;95380.28;4403350;32;20308;-67
2023/05/20 04:16:49;;;;;;;2.63;2.53;;;;;;;13.91;99.96;95377.13;4398660;32;20180;-67
2023/05/20 04:19:14;;;;;;;4.00;3.67;;;;;;;13.92;100.00;95373.38;4390933;32;20183;-67
2023/05/20 04:21:42;;;;;;;4.00;3.70;;;;;;;13.79;100.00;95373.50;4410586;32;20261;-67
2023/05/20 04:24:07;;;;;;;3.13;2.93;;;;;;;13.66;100.00;95372.53;4392118;32;20201;-67
2023/05/20 04:26:32;;;;;;;4.40;4.20;;;;;;;13.82;100.00;95373.66;4391938;32;20245;-67
2023/05/20 04:29:00;;;;;;;3.30;3.10;;;;;;;13.99;100.00;95376.34;4393434;32;20290;-67
2023/05/20 04:31:25;;;;;;;4.27;3.93;;;;;;;14.06;100.00;95379.34;4393729;32;20224;-67
2023/05/20 04:33:52;;;;;;;3.50;3.40;;;;;;;13.65;100.00;95378.97;4393185;32;20185;-67
2023/05/20 04:36:17;;;;;;;4.57;3.53;;;;;;;13.59;100.00;95372.22;4395988;32;20282;-66
2023/05/20 04:38:44;;;;;;;3.53;3.33;;;;;;;13.74;100.00;95369.88;4401004;32;20183;-66
2023/05/20 04:41:10;;;;;;;4.73;3.47;;;;;;;13.80;100.00;95369.75;4406920;32;20226;-66
2023/05/20 04:43:37;;;;;;;3.57;3.40;;;;;;;13.73;100.00;95365.63;4389279;32;20252;-67
2023/05/20 04:46:07;;;;;;;3.43;3.33;;;;;;;13.84;100.00;95370.69;4389511;32;20180;-67
2023/05/20 04:48:33;;;;;;;4.03;3.73;;;;;;;13.99;100.00;95371.00;4381987;32;20192;-67
2023/05/20 04:51:00;;;;;;;5.30;4.90;;;;;;;14.14;100.00;95367.06;4378718;32;20212;-67
2023/05/20 04:53:25;;;;;;;3.00;2.80;;;;;;;14.01;100.00;95371.47;4383450;32;20242;-67
2023/05/20 04:55:55;;;;;;;4.83;4.47;;;;;;;13.99;100.00;95368.34;4391258;32;20197;-67
2023/05/20 04:58:23;;;;;;;4.17;3.67;;;;;;;14.11;100.00;95373.06;4405488;32;20231;-67
2023/05/20 05:00:52;;;;;;;3.53;3.33;;;;;;;13.75;100.00;95366.13;4395611;32;20230;-67
2023/05/20 05:03:17;;;;;;;3.10;2.97;;;;;;;13.81;100.00;95368.63;4396131;32;20192;-67
2023/05/20 05:05:43;;;;;;;13.30;4.53;;;;;;;13.89;100.00;95365.22;4397127;32;20223;-66
2023/05/20 05:08:12;;;;;;;4.80;3.73;;;;;;;14.09;100.00;95372.59;4401840;32;20200;-67
2023/05/20 05:10:38;;;;;;;3.17;3.07;;;;;;;14.10;100.00;95380.28;4396664;32;20211;-67
2023/05/20 05:13:03;;;;;;;4.30;4.10;;;;;;;14.11;100.00;95375.72;4387564;32;20240;-67
2023/05/20 05:15:29;;;;;;;4.53;4.23;;;;;;;14.18;100.00;95377.91;4399452;32;20291;-67
2023/05/20 05:17:55;;;;;;;4.27;3.97;;;;;;;14.02;100.00;95373.06;4385277;32;20196;-67
2023/05/20 05:20:20;;;;;;;6.50;4.30;;;;;;;14.03;100.00;95366.63;4397379;32;20185;-67
2023/05/20 05:22:46;;;;;;;4.77;4.37;;;;;;;13.98;100.00;95365.97;4397384;32;20215;-67
2023/05/20 05:25:13;;;;;;;5.20;4.80;;;;;;;13.87;100.00;95359.41;4392837;32;20259;-66
2023/05/20 05:27:39;;;;;;;6.00;5.40;;;;;;;13.91;100.00;95350.47;4390954;32;20196;-66
2023/05/20 05:30:06;;;;;;;4.53;4.23;;;;;;;14.06;100.00;95350.00;4398102;32;20207;-67
2023/05/20 05:32:32;;;;;;;5.83;4.87;;;;;;;14.19;100.00;95353.59;4401714;32;20214;-67
2023/05/20 05:34:57;;;;;;;4.70;4.47;;;;;;;14.01;100.00;95357.34;4400922;32;20204;-67
2023/05/20 05:37:23;;;;;;;8.10;5.63;;;;;;;13.90;100.00;95356.91;4389959;32;20199;-67
2023/05/20 05:39:50;;;;;;;5.47;4.80;;;;;;;14.00;100.00;95355.78;4397571;32;20295;-67
2023/05/20 05:42:15;;;;;;;3.70;3.50;;;;;;;13.84;100.00;95355.47;4387736;32;20203;-67
2023/05/20 05:44:40;;;;;;;4.87;4.40;;;;;;;13.83;100.00;95359.22;4381474;32;20197;-66
2023/05/20 05:47:06;;;;;;;4.17;3.90;;;;;;;13.92;100.00;95362.72;4402926;32;20188;-67
2023/05/20 05:49:32;;;;;;;3.87;3.67;;;;;;;14.08;100.00;95365.69;4401467;32;20248;-67
2023/05/20 05:52:02;;;;;;;5.20;4.70;;;;;;;14.16;100.00;95367.56;4394358;32;20253;-67
2023/05/20 05:54:28;;;;;;;3.60;3.33;;;;;;;14.37;100.00;95365.03;4394997;32;20201;-67
2023/05/20 05:56:55;;;;;;;4.73;4.33;;;;;;;14.31;100.00;95368.97;4405911;32;20202;-67
2023/05/20 05:59:21;;;;;;;8.50;5.67;;;;;;;14.43;100.00;95367.25;4398923;32;20258;-67
2023/05/20 06:01:46;;;;;;;5.50;5.10;;;;;;;14.48;100.00;95362.88;4391610;32;20180;-67
2023/05/20 06:04:11;;;;;;;5.40;5.00;;;;;;;14.37;100.00;95371.16;4402770;32;20228;-67
2023/05/20 06:06:37;;;;;;;5.03;4.60;;;;;;;14.30;100.00;95364.75;4390132;32;20180;-67
2023/05/20 06:09:02;;;;;;;4.07;3.80;;;;;;;14.10;100.00;95369.63;4390904;32;20204;-67
2023/05/20 06:11:28;;;;;;;5.40;5.00;;;;;;;14.24;100.00;95366.78;4388147;32;20187;-67
2023/05/20 06:13:53;;;;;;;6.80;6.17;;;;;;;14.26;100.00;95367.25;4399541;32;20207;-66
2023/05/20 06:16:19;;;;;;;5.80;5.30;;;;;;;14.37;100.00;95365.81;4387230;32;20216;-67
2023/05/20 06:18:45;;;;;;;4.67;4.27;;;;;;;14.35;100.00;95370.69;4390160;32;20293;-67
2023/05/20 06:21:11;;;;;;;3.33;2.80;;;;;;;14.28;99.37;95367.72;4390363;32;20191;-67
2023/05/20 06:23:36;;;;;;;5.40;4.47;;;;;;;14.29;100.00;95366.63;4401109;32;20219;-67
2023/05/20 06:26:03;;;;;;;4.43;4.13;;;;;;;14.48;100.00;95360.97;4394712;32;20221;-67
2023/05/20 06:28:29;;;;;;;5.53;5.03;;;;;;;14.54;99.37;95365.06;4398060;32;20172;-67
2023/05/20 06:30:55;;;;;;;5.27;4.87;;;;;;;14.41;98.64;95360.66;4408791;32;20184;-67
2023/05/20 06:33:25;;;;;;;4.00;3.80;;;;;;;14.52;100.00;95353.13;4402234;32;20199;-67
2023/05/20 06:35:55;;;;;;;4.93;4.00;;;;;;;14.32;99.76;95349.97;4391208;32;20200;-67
2023/05/20 06:38:20;;;;;;;5.60;5.07;;;;;;;14.59;100.00;95354.19;4396315;32;20192;-66
2023/05/20 06:40:47;;;;;;;5.23;4.93;;;;;;;14.63;99.70;95357.00;4399841;32;20212;-65
2023/05/20 06:43:14;;;;;;;6.63;5.00;;;;;;;14.71;98.99;95357.00;4390467;32;20185;-65
2023/05/20 06:45:40;;;;;;;5.90;4.67;;;;;;;14.73;99.58;95356.69;4378107;32;20220;-63
2023/05/20 06:48:06;;;;;;;4.63;4.40;;;;;;;14.81;99.06;95353.19;4407859;32;20176;-65
2023/05/20 06:50:32;;;;;;;3.73;3.53;;;;;;;14.66;98.48;95356.38;4399340;32;20234;-65
2023/05/20 06:52:57;;;;;;;5.27;4.97;;;;;;;14.72;97.94;95357.78;4406887;32;20255;-65
2023/05/20 06:55:23;;;;;;;4.80;4.50;;;;;;;14.60;97.83;95361.09;4396532;32;20210;-65
2023/05/20 06:57:49;;;;;;;3.93;3.63;;;;;;;14.63;98.83;95349.00;4395237;32;20191;-65
2023/05/20 07:00:14;;;;;;;5.17;3.57;;;;;;;14.65;99.19;95346.81;4386123;32;20232;-65
2023/05/20 07:02:40;;;;;;;3.77;3.57;;;;;;;14.78;99.27;95343.16;4402250;32;20266;-63
2023/05/20 07:05:07;;;;;;;3.77;3.57;;;;;;;14.66;97.25;95341.16;4396232;32;20184;-65
2023/05/20 07:07:33;;;;;;;4.43;4.07;;;;;;;14.57;97.63;95344.94;4393515;32;20193;-66
2023/05/20 07:09:58;;;;;;;5.27;4.87;;;;;;;14.53;97.89;95346.69;4392763;32;20211;-66
2023/05/20 07:12:23;;;;;;;4.83;4.43;;;;;;;14.48;98.28;95346.84;4394066;32;20184;-65
2023/05/20 07:14:49;;;;;;;4.73;4.37;;;;;;;14.58;97.80;95357.97;4394650;32;20187;-65
2023/05/20 07:17:14;;;;;;;5.23;4.83;;;;;;;14.60;98.22;95344.28;4396082;32;20200;-65
2023/05/20 07:19:40;;;;;;;5.13;4.77;;;;;;;14.41;97.72;95337.44;4391497;32;20192;-64
2023/05/20 07:22:05;;;;;;;6.57;5.87;;;;;;;14.47;98.66;95342.59;4395948;32;20188;-66
2023/05/20 07:24:30;;;;;;;6.27;5.83;;;;;;;14.44;96.83;95341.34;4393398;32;20299;-65
2023/05/20 07:26:56;;;;;;;5.00;4.63;;;;;;;14.24;96.66;95341.97;4386324;32;20228;-66
2023/05/20 07:29:21;;;;;;;7.23;5.33;;;;;;;14.21;97.58;95339.94;4401810;32;20197;-65
2023/05/20 07:31:47;;;;;;;4.37;4.10;;;;;;;14.21;98.99;95346.06;4392422;32;20202;-65
2023/05/20 07:34:12;;;;;;;5.00;4.63;;;;;;;14.27;98.36;95342.13;4392247;32;20184;-65
2023/05/20 07:36:37;;;;;;;6.30;4.80;;;;;;;14.18;98.46;95344.00;4391336;32;20198;-65
2023/05/20 07:39:03;;;;;;;5.67;5.03;;;;;;;14.29;98.61;95334.59;4390173;32;20192;-66
2023/05/20 07:41:28;;;;;;;4.37;4.00;;;;;;;14.41;98.83;95329.41;4400049;32;20247;-65
2023/05/20 07:43:54;;;;;;;6.20;5.60;;;;;;;14.56;99.04;95335.34;4401120;32;20192;-66
2023/05/20 07:46:20;;;;;;;5.70;5.30;;;;;;;14.70;98.33;95334.06;4406184;32;20232;-65
2023/05/20 07:48:45;;;;;;;5.07;4.77;;;;;;;14.90;96.79;95331.81;4385682;32;20199;-66
2023/05/20 07:51:11;;;;;;;4.23;3.93;;;;;;;15.12;97.16;95336.91;4385766;32;20192;-65
2023/05/20 07:53:36;;;;;;;4.80;4.40;;;;;;;15.09;93.32;95334.88;4416111;32;20218;-66
2023/05/20 07:56:06;;;;;;;4.00;3.77;;;;;;;14.86;94.15;95329.00;4396632;32;20244;-65
2023/05/20 07:58:31;;;;;;;5.07;4.57;;;;;;;14.86;92.93;95337.00;4386915;32;20192;-65
2023/05/20 08:00:58;;;;;;;4.20;3.90;;;;;;;14.89;95.51;95338.25;4390585;32;20184;-66
2023/05/20 08:03:23;;;;;;;4.50;4.27;;;;;;;15.12;94.84;95332.34;4390452;32;20242;-66
2023/05/20 08:05:49;;;;;;;4.10;3.80;;;;;;;15.16;91.91;95329.03;4385521;32;20215;-65
2023/05/20 08:08:15;;;;;;;4.10;3.80;;;;;;;15.11;91.90;95328.09;4392647;32;20185;-66
2023/05/20 08:10:40;;;;;;;4.20;4.00;;;;;;;15.21;93.57;95324.28;4394689;32;20222;-64
2023/05/20 08:13:05;;;;;;;4.63;4.33;;;;;;;15.40;92.11;95335.34;4398400;32;20232;-66
2023/05/20 08:15:31;;;;;;;4.47;4.07;;;;;;;15.45;91.53;95326.34;4396574;32;20196;-66
2023/05/20 08:17:56;;;;;;;3.67;3.47;;;;;;;15.47;91.50;95318.78;4385814;32;20224;-65
2023/05/20 08:20:21;;;;;;;3.30;3.10;;;;;;;15.41;91.93;95314.72;4388729;32;20193;-65
2023/05/20 08:22:47;;;;;;;3.47;3.20;;;;;;;15.53;90.69;95308.69;4401358;32;20243;-66
2023/05/20 08:25:13;;;;;;;4.37;3.97;;;;;;;15.57;90.10;95306.97;4392138;32;20199;-65
2023/05/20 08:27:38;;;;;;;4.03;3.73;;;;;;;15.53;90.93;95306.81;4404394;32;20252;-65
2023/05/20 08:30:08;;;;;;;4.23;3.93;;;;;;;15.36;90.08;95313.06;4387476;32;20176;-66
2023/05/20 08:32:34;;;;;;;7.83;4.07;;;;;;;15.43;91.05;95315.19;4380108;32;20180;-66
2023/05/20 08:35:01;;;;;;;4.33;3.17;;;;;;;15.54;89.87;95315.63;4380629;32;20275;-65
2023/05/20 08:37:27;;;;;;;3.87;3.67;;;;;;;15.57;90.17;95312.31;4382437;32;20212;-65
2023/05/20 08:39:52;;;;;;;4.23;4.03;;;;;;;15.70;89.80;95306.72;4377239;32;20181;-65
2023/05/20 08:42:25;;;;;;;3.90;3.53;;;;;;;15.80;89.38;95314.34;4396938;32;20223;-65
2023/05/20 08:44:52;;;;;;;3.73;3.43;;;;;;;15.95;91.83;95299.59;4385130;32;20181;-65
2023/05/20 08:47:21;;;;;;;2.00;2.00;;;;;;;16.03;90.44;95303.31;4376763;32;20196;-65
2023/05/20 08:49:48;;;;;;;3.70;3.40;;;;;;;16.18;91.03;95300.03;4388005;32;20231;-65
2023/05/20 08:52:16;;;;;;;2.60;2.50;;;;;;;16.20;88.14;95292.47;4370933;32;20216;-65
2023/05/20 08:54:48;;;;;;;3.10;3.00;;;;;;;16.28;87.96;95299.63;4359257;32;20258;-65
2023/05/20 08:57:13;;;;;;;4.17;3.37;;;;;;;16.13;87.12;95310.94;4375531;32;20233;-65
2023/05/20 08:59:43;;;;;;;2.87;2.77;;;;;;;16.20;87.16;95307.75;4380753;32;20268;-65
2023/05/20 09:02:10;;;;;;;1.90;1.87;;;;;;;16.31;86.97;95312.34;4376060;32;20201;-66
2023/05/20 09:04:35;;;;;;;3.17;2.97;;;;;;;16.32;86.46;95300.53;4376957;32;20215;-66
2023/05/20 09:07:01;;;;;;;3.23;3.03;;;;;;;16.39;87.50;95300.00;4392493;32;20225;-67
2023/05/20 09:09:26;;;;;;;3.03;2.87;;;;;;;16.57;87.62;95295.25;4377510;32;20223;-65
2023/05/20 09:11:52;;;;;;;2.77;2.53;;;;;;;16.73;86.85;95294.31;4401336;32;20188;-66
2023/05/20 09:14:17;;;;;;;1.67;1.57;;;;;;;16.81;85.19;95298.00;4375637;32;20220;-65
2023/05/20 09:16:42;;;;;;;1.77;1.67;;;;;;;17.01;84.09;95299.03;4367818;32;20256;-65
2023/05/20 09:19:09;;;;;;;1.93;1.83;;;;;;;17.15;82.71;95302.94;4384408;32;20251;-66
2023/05/20 09:21:35;;;;;;;2.17;2.07;;;;;;;17.30;82.32;95296.09;4374166;32;20192;-61
2023/05/20 09:24:05;;;;;;;2.37;2.20;;;;;;;17.53;83.35;95293.75;4374617;32;20276;-63
2023/05/20 09:26:33;;;;;;;3.37;3.10;;;;;;;18.34;84.10;95289.94;4379638;32;20227;-63
2023/05/20 09:28:59;;;;;;;3.20;2.90;;;;;;;18.28;79.28;95295.91;4375362;32;20272;-63
2023/05/20 09:31:27;;;;;;;1.60;1.50;;;;;;;18.45;77.70;95290.22;4328596;32;20197;-64
2023/05/20 09:33:53;;;;;;;1.97;1.87;;;;;;;18.47;75.51;95286.09;4386747;32;20193;-63
2023/05/20 09:36:20;;;;;;;1.73;1.63;;;;;;;18.71;74.60;95284.38;4363503;32;20203;-63
2023/05/20 09:38:47;;;;;;;1.17;1.17;;;;;;;18.66;72.16;95290.03;4346545;32;20180;-64
2023/05/20 09:41:14;;;;;;;1.57;1.00;;;;;;;18.45;72.16;95288.31;4365868;32;20262;-64
2023/05/20 09:43:40;;;;;;;1.17;1.17;;;;;;;18.65;74.37;95286.56;4371050;32;20047;-61
2023/05/20 09:46:07;;;;;;;0.93;0.93;;;;;;;18.58;72.20;95288.25;4348693;32;20220;-63
2023/05/20 09:48:37;;;;;;;1.30;1.20;;;;;;;18.62;73.91;95281.88;4375367;32;20197;-64
2023/05/20 09:51:06;;;;;;;1.67;1.57;;;;;;;18.66;71.83;95285.44;4375195;32;20184;-64
2023/05/20 09:53:32;;;;;;;1.80;1.70;;;;;;;18.79;72.65;95286.12;4368827;32;20193;-64
2023/05/20 09:55:57;;;;;;;0.87;0.87;;;;;;;18.93;72.54;95278.41;4376867;32;20204;-63
2023/05/20 09:58:24;;;;;;;1.77;1.67;;;;;;;18.96;69.88;95272.34;4378197;32;20203;-63
2023/05/20 10:00:50;;;;;;;1.30;1.30;;;;;;;18.86;71.51;95272.88;4376524;32;20259;-63
2023/05/20 10:03:17;;;;;;;1.17;1.17;;;;;;;19.01;72.61;95274.00;4379125;32;20208;-63
2023/05/20 10:05:51;;;;;;;1.20;1.20;;;;;;;19.12;72.87;95266.97;4391996;32;20180;-64
2023/05/20 10:08:20;;;;;;;1.30;1.30;;;;;;;19.15;72.68;95269.72;4389689;32;20227;-63
2023/05/20 10:11:03;;;;;;;1.50;1.40;;;;;;;19.16;72.58;95263.22;4396468;32;20211;-63
2023/05/20 10:13:50;;;;;;;1.10;0.90;;;;;;;19.11;70.87;95268.87;4387147;32;20188;-63
2023/05/20 10:16:39;;;;;;;2.30;1.73;;;;;;;19.16;71.16;95273.97;4381515;32;20226;-63
2023/05/20 10:19:10;;;;;;;0.97;0.97;;;;;;;19.17;71.59;95261.31;4363049;32;20189;-63
2023/05/20 10:21:36;;;;;;;1.57;1.57;;;;;;;19.14;71.77;95256.62;4390545;32;20187;-63
2023/05/20 10:24:06;;;;;;;1.00;1.00;;;;;;;19.20;71.51;95255.22;4386855;32;20224;-63
2023/05/20 10:26:40;;;;;;;0.90;0.90;;;;;;;19.30;71.12;95256.62;4380700;32;20294;-63
2023/05/20 10:29:21;;;;;;;1.03;1.03;;;;;;;19.40;70.39;95262.22;4359330;32;20189;-63
2023/05/20 10:31:51;;;;;;;1.17;1.17;;;;;;;19.46;70.19;95251.97;4365902;32;20269;-63
2023/05/20 10:34:21;;;;;;;1.17;1.07;;;;;;;19.46;69.70;95252.75;4370497;32;20251;-63
2023/05/20 10:36:57;;;;;;;1.43;1.13;;;;;;;19.55;69.67;95244.50;4388734;32;20323;-63
2023/05/20 10:39:32;;;;;;;0.70;0.70;;;;;;;19.57;69.14;95239.53;4360302;32;20256;-63
2023/05/20 10:42:06;;;;;;;1.00;1.00;;;;;;;19.60;65.65;95241.53;4378397;32;20223;-63
2023/05/20 10:44:42;;;;;;;1.43;1.27;;;;;;;19.70;64.26;95235.63;4386685;32;20189;-63
2023/05/20 10:47:08;;;;;;;1.03;1.03;;;;;;;19.70;66.53;95238.31;4385115;32;20192;-63
2023/05/20 10:49:37;;;;;;;0.53;0.53;;;;;;;19.67;64.48;95224.78;4387097;32;20253;-63
2023/05/20 10:52:03;;;;;;;1.10;1.10;;;;;;;19.68;65.35;95232.50;4379372;32;20206;-63
2023/05/20 10:54:28;;;;;;;0.30;0.30;;;;;;;19.71;64.56;95234.47;4379113;32;20250;-63
2023/05/20 10:56:54;;;;;;;0.53;0.53;;;;;;;19.71;61.98;95231.78;4383590;32;20196;-63
2023/05/20 10:59:23;;;;;;;0.43;0.43;;;;;;;19.77;63.65;95234.97;4376451;32;20193;-63
2023/05/20 11:01:48;;;;;;;1.90;1.30;;;;;;;19.80;61.08;95228.88;4382610;32;20189;-63
2023/05/20 11:04:15;;;;;;;1.40;1.40;;;;;;;19.87;60.98;95227.13;4391492;32;20219;-63
2023/05/20 11:06:50;;;;;;;0.40;0.40;;;;;;;19.85;60.45;95224.00;4390793;32;20249;-64
2023/05/20 11:09:15;;;;;;;1.07;1.07;;;;;;;19.96;61.71;95228.78;4386578;32;20175;-64
2023/05/20 11:11:41;;;;;;;0.60;0.60;;;;;;;19.89;62.04;95214.06;4374416;32;20301;-62
2023/05/20 11:14:12;;;;;;;0.90;0.90;;;;;;;19.88;62.74;95220.59;4379309;32;20259;-63
2023/05/20 11:16:38;;;;;;;0.77;0.77;;;;;;;19.86;63.20;95222.06;4380681;32;20184;-63
2023/05/20 11:19:03;;;;;;;0.77;0.77;;;;;;;19.84;61.93;95219.75;4319269;32;20200;-63
2023/05/20 11:21:28;;;;;;;1.60;1.50;;;;;;;19.83;64.04;95207.41;4373348;32;20192;-63
2023/05/20 11:23:54;;;;;;;0.97;0.97;;;;;;;19.77;61.34;95211.50;4385735;32;20193;-63
2023/05/20 11:26:20;;;;;;;1.07;1.00;;;;;;;19.79;62.94;95209.25;4387263;32;20181;-64
2023/05/20 11:28:46;;;;;;;0.53;0.53;;;;;;;19.71;63.27;95198.72;4381351;32;20195;-65